Terminal Aerodrome Forecast
Issued by NWS

Home | Current Version | Previous Version | Text Only | Print | Product List | Glossary On
Versions: 1 2 3 4 5 6 7 8 9 10 11 12 13 14 15 16 17 18
000
FTAK31 PAJN 211700
TAFAKT
TAF
PAKT 211722Z 2118/2218 15015G25KT 5SM -RA BR BKN020 OVC030
      WS020/14040KT
     FM212200 16011KT 6SM -RA BR BKN020 OVC030
     FM220500 18005KT 6SM -SHRA BR SCT020 OVC030
      AMD LTD TO CLD VIS AND WIND 2206/2215=

USA.gov is the U.S. government's official web portal to all federal, state and local government web resources and services.